createdAt,value
2022-11-02T00:01:28.065Z,78.40
2022-11-02T00:03:55.886Z,78.40
2022-11-02T00:06:23.628Z,78.40
2022-11-02T00:08:51.343Z,78.40
2022-11-02T00:11:19.107Z,78.40
2022-11-02T00:13:46.823Z,78.50
2022-11-02T00:16:19.139Z,78.50
2022-11-02T00:18:52.375Z,78.50
2022-11-02T00:21:22.376Z,78.50
2022-11-02T00:23:50.655Z,78.50
2022-11-02T00:26:19.333Z,78.40
2022-11-02T00:28:47.487Z,78.50
2022-11-02T00:31:15.607Z,78.50
2022-11-02T00:33:43.378Z,78.40
2022-11-02T00:36:12.973Z,78.40
2022-11-02T00:38:41.011Z,78.50
2022-11-02T00:41:08.734Z,78.40
2022-11-02T00:43:36.655Z,78.40
2022-11-02T00:46:05.826Z,78.80
2022-11-02T00:48:33.550Z,78.40
2022-11-02T00:51:01.540Z,78.60
2022-11-02T00:53:32.128Z,78.60
2022-11-02T00:56:00.540Z,78.50
2022-11-02T00:58:28.323Z,78.50
2022-11-02T01:00:57.122Z,78.60
2022-11-02T01:03:24.946Z,78.50
2022-11-02T01:05:52.708Z,78.60
2022-11-02T01:08:20.434Z,78.50
2022-11-02T01:10:49.551Z,78.50
2022-11-02T01:13:17.706Z,78.60
2022-11-02T01:15:45.454Z,78.50
2022-11-02T01:18:13.188Z,78.50
2022-11-02T01:20:40.902Z,78.50
2022-11-02T01:23:08.642Z,78.60
2022-11-02T01:25:36.344Z,78.60
2022-11-02T01:28:06.486Z,78.60
2022-11-02T01:30:34.498Z,78.60
2022-11-02T01:33:02.232Z,78.60
2022-11-02T01:35:29.959Z,78.60
2022-11-02T01:37:57.673Z,78.60
2022-11-02T01:40:26.119Z,78.60
2022-11-02T01:42:54.264Z,78.60
2022-11-02T01:45:23.363Z,78.60
2022-11-02T01:47:51.137Z,78.70
2022-11-02T01:50:22.434Z,78.60
2022-11-02T01:52:50.372Z,78.60
2022-11-02T01:55:22.137Z,78.60
2022-11-02T01:57:55.750Z,78.70
2022-11-02T02:00:24.987Z,78.70
2022-11-02T02:02:57.626Z,78.70
2022-11-02T02:05:26.897Z,78.70
2022-11-02T02:07:56.436Z,78.70
2022-11-02T02:10:24.312Z,78.70
2022-11-02T02:12:52.208Z,78.80
2022-11-02T02:15:26.086Z,78.80
2022-11-02T02:18:00.802Z,78.80
2022-11-02T02:20:40.801Z,78.80
2022-11-02T02:23:38.393Z,78.90
2022-11-02T02:26:47.678Z,78.80
2022-11-02T02:29:21.857Z,78.90
2022-11-02T02:31:56.601Z,78.90
2022-11-02T02:34:28.295Z,78.90
2022-11-02T02:37:02.292Z,78.90
2022-11-02T02:39:38.626Z,78.90
2022-11-02T02:42:13.721Z,78.90
2022-11-02T02:44:47.395Z,78.90
2022-11-02T02:47:19.233Z,78.90
2022-11-02T02:49:51.980Z,78.90
2022-11-02T02:52:23.412Z,79.70
2022-11-02T02:54:53.313Z,78.90
2022-11-02T02:57:24.215Z,78.90
2022-11-02T02:59:54.953Z,78.90
2022-11-02T03:02:28.010Z,78.90
2022-11-02T03:04:55.852Z,78.80
2022-11-02T03:07:31.139Z,78.90
2022-11-02T03:10:12.404Z,78.90
2022-11-02T03:12:48.912Z,78.90
2022-11-02T03:15:27.882Z,78.90
2022-11-02T03:18:05.377Z,78.90
2022-11-02T03:20:43.981Z,78.90
2022-11-02T03:23:18.984Z,78.90
2022-11-02T03:26:00.443Z,78.90
2022-11-02T03:28:40.702Z,78.90
2022-11-02T03:31:14.279Z,79.00
2022-11-02T03:33:47.501Z,79.00
2022-11-02T03:36:20.050Z,79.00
2022-11-02T03:38:52.612Z,79.50
2022-11-02T03:41:23.798Z,79.00
2022-11-02T03:43:56.758Z,78.90
2022-11-02T03:46:27.396Z,79.10
2022-11-02T03:48:56.915Z,79.00
2022-11-02T03:51:26.599Z,78.90
2022-11-02T03:53:59.729Z,79.00
2022-11-02T03:56:33.910Z,79.00
2022-11-02T03:59:01.659Z,78.90
2022-11-02T04:01:32.403Z,78.90
2022-11-02T04:04:00.302Z,78.90
2022-11-02T04:06:28.721Z,79.00
2022-11-02T04:08:56.592Z,79.00
2022-11-02T04:11:42.539Z,79.10
2022-11-02T04:14:31.028Z,79.10
2022-11-02T04:17:15.477Z,79.00
2022-11-02T04:19:49.885Z,79.00
2022-11-02T04:22:37.226Z,79.00
2022-11-02T04:25:18.585Z,79.00
2022-11-02T04:27:54.810Z,79.00
2022-11-02T04:30:30.685Z,79.00
2022-11-02T04:33:19.478Z,79.00
2022-11-02T04:35:55.746Z,79.90
2022-11-02T04:38:40.800Z,79.00
2022-11-02T04:41:51.498Z,79.00
2022-11-02T04:44:30.380Z,79.00
2022-11-02T04:47:09.195Z,79.10
2022-11-02T04:49:38.452Z,79.00
2022-11-02T04:52:10.743Z,79.10
2022-11-02T04:54:43.794Z,79.10
2022-11-02T04:57:11.551Z,79.10
2022-11-02T04:59:39.402Z,79.00
2022-11-02T05:02:07.694Z,79.10
2022-11-02T05:04:37.514Z,79.10
2022-11-02T05:07:07.415Z,79.10
2022-11-02T05:09:36.916Z,79.00
2022-11-02T05:12:06.686Z,79.00
2022-11-02T05:14:35.166Z,79.00
2022-11-02T05:17:04.220Z,79.00
2022-11-02T05:19:33.058Z,79.00
2022-11-02T05:22:03.779Z,79.00
2022-11-02T05:24:32.144Z,78.90
2022-11-02T05:27:00.858Z,78.90
2022-11-02T05:29:28.594Z,78.90
2022-11-02T05:31:57.555Z,78.90
2022-11-02T05:34:25.368Z,78.90
2022-11-02T05:36:54.217Z,78.90
2022-11-02T05:39:23.379Z,78.80
2022-11-02T05:41:51.180Z,78.80
2022-11-02T05:44:18.948Z,78.90
2022-11-02T05:46:46.765Z,78.90
2022-11-02T05:49:14.456Z,79.10
2022-11-02T05:51:42.179Z,79.50
2022-11-02T05:54:09.885Z,79.60
2022-11-02T05:56:38.995Z,79.60
2022-11-02T05:59:06.949Z,79.70
2022-11-02T06:01:34.741Z,79.80
2022-11-02T06:04:02.524Z,80.00
2022-11-02T06:06:30.291Z,80.10
2022-11-02T06:09:01.608Z,80.00
2022-11-02T06:11:32.044Z,80.00
2022-11-02T06:14:01.115Z,80.00
2022-11-02T06:16:28.862Z,80.00
2022-11-02T06:18:56.721Z,79.90
2022-11-02T06:21:24.496Z,80.00
2022-11-02T06:23:52.257Z,80.00
2022-11-02T06:26:20.027Z,80.00
2022-11-02T06:28:47.798Z,80.10
2022-11-02T06:31:17.873Z,80.20
2022-11-02T06:33:46.000Z,80.10
2022-11-02T06:36:13.732Z,80.20
2022-11-02T06:38:41.949Z,80.10
2022-11-02T06:41:10.310Z,80.20
2022-11-02T06:43:39.451Z,80.10
2022-11-02T06:46:07.380Z,80.10
2022-11-02T06:48:36.440Z,80.10
2022-11-02T06:51:05.151Z,80.10
2022-11-02T06:53:33.124Z,80.00
2022-11-02T06:56:01.435Z,80.00
2022-11-02T06:58:29.268Z,80.00
2022-11-02T07:01:01.826Z,79.90
2022-11-02T07:03:30.263Z,80.00
2022-11-02T07:05:59.545Z,79.80
2022-11-02T07:08:28.516Z,80.50
2022-11-02T07:10:56.782Z,79.70
2022-11-02T07:13:24.691Z,79.70
2022-11-02T07:15:53.869Z,79.60
2022-11-02T07:18:21.656Z,79.60
2022-11-02T07:20:49.371Z,79.60
2022-11-02T07:23:18.449Z,79.60
2022-11-02T07:25:46.176Z,79.50
2022-11-02T07:28:13.930Z,79.50
2022-11-02T07:30:41.719Z,79.40
2022-11-02T07:33:09.434Z,79.40
2022-11-02T07:35:37.171Z,79.40
2022-11-02T07:38:06.548Z,79.40
2022-11-02T07:40:38.665Z,79.30
2022-11-02T07:43:07.536Z,79.30
2022-11-02T07:45:54.220Z,79.30
2022-11-02T07:48:22.097Z,79.30
2022-11-02T07:50:49.906Z,79.30
2022-11-02T07:53:17.661Z,79.30
2022-11-02T07:55:46.776Z,79.20
2022-11-02T07:58:15.291Z,79.20
2022-11-02T08:00:43.249Z,79.20
2022-11-02T08:03:12.674Z,79.20
2022-11-02T08:05:42.464Z,79.20
2022-11-02T08:08:14.307Z,79.20
2022-11-02T08:10:42.770Z,79.20
2022-11-02T08:13:13.940Z,79.10
2022-11-02T08:15:42.274Z,79.30
2022-11-02T08:18:14.668Z,79.40
2022-11-02T08:20:43.054Z,79.50
2022-11-02T08:23:11.512Z,79.70
2022-11-02T08:25:40.376Z,79.60
2022-11-02T08:28:12.284Z,79.60
2022-11-02T08:30:41.311Z,79.70
2022-11-02T08:33:13.149Z,79.70
2022-11-02T08:35:41.270Z,79.70
2022-11-02T08:38:09.743Z,79.60
2022-11-02T08:40:37.947Z,79.60
2022-11-02T08:43:07.803Z,79.70
2022-11-02T08:46:08.259Z,79.70
2022-11-02T08:48:26.314Z,79.80
2022-11-02T08:50:54.130Z,79.80
2022-11-02T08:53:21.914Z,79.80
2022-11-02T08:55:49.706Z,79.80
2022-11-02T08:58:18.382Z,79.80
2022-11-02T09:00:46.359Z,79.80
2022-11-02T09:03:17.169Z,79.80
2022-11-02T09:05:48.389Z,79.80
2022-11-02T09:08:18.031Z,79.90
2022-11-02T09:10:47.286Z,79.80
2022-11-02T09:13:17.104Z,79.90
2022-11-02T09:15:44.963Z,79.80
2022-11-02T09:18:12.693Z,79.80
2022-11-02T09:20:40.456Z,79.80
2022-11-02T09:23:09.513Z,79.90
2022-11-02T09:25:37.223Z,79.90
2022-11-02T09:28:05.279Z,79.80
2022-11-02T09:30:33.882Z,79.80
2022-11-02T09:33:04.024Z,79.80
2022-11-02T09:35:34.330Z,79.80
2022-11-02T09:38:04.520Z,79.80
2022-11-02T09:40:38.676Z,79.90
2022-11-02T09:43:15.827Z,79.90
2022-11-02T09:45:52.474Z,79.80
2022-11-02T09:48:28.333Z,79.80
2022-11-02T09:51:04.245Z,79.80
2022-11-02T09:53:42.762Z,79.80
2022-11-02T09:56:14.610Z,79.80
2022-11-02T09:58:44.057Z,79.70
2022-11-02T10:01:37.984Z,79.70
2022-11-02T10:04:33.221Z,79.80
2022-11-02T10:07:07.809Z,79.70
2022-11-02T10:09:41.237Z,79.60
2022-11-02T10:12:15.158Z,79.60
2022-11-02T10:14:57.806Z,79.50
2022-11-02T10:17:28.319Z,79.50
2022-11-02T10:19:58.950Z,79.50
2022-11-02T10:22:33.130Z,79.50
2022-11-02T10:25:02.689Z,79.40
2022-11-02T10:27:37.209Z,79.40
2022-11-02T10:30:11.805Z,79.40
2022-11-02T10:38:21.505Z,79.30
2022-11-02T10:41:18.103Z,79.20
2022-11-02T10:44:03.427Z,79.20
2022-11-02T10:46:53.279Z,79.10
2022-11-02T10:49:41.336Z,79.00
2022-11-02T10:52:15.078Z,79.00
2022-11-02T10:54:42.871Z,78.90
2022-11-02T10:57:13.459Z,78.90
2022-11-02T10:59:42.527Z,78.80
2022-11-02T11:02:14.355Z,78.80
2022-11-02T11:04:43.084Z,78.80
2022-11-02T11:07:15.945Z,78.70
2022-11-02T11:09:49.660Z,78.70
2022-11-02T11:12:20.860Z,78.60
2022-11-02T11:20:36.276Z,78.50
2022-11-02T11:23:17.917Z,79.30
2022-11-02T11:25:55.435Z,78.50
2022-11-02T11:28:25.760Z,78.40
2022-11-02T11:31:11.856Z,78.40
2022-11-02T11:33:45.724Z,78.30
2022-11-02T11:39:01.169Z,78.20
2022-11-02T11:41:30.010Z,78.30
2022-11-02T11:43:58.214Z,78.30
2022-11-02T11:46:40.761Z,78.30
2022-11-02T11:49:31.031Z,78.20
2022-11-02T11:52:04.827Z,78.20
2022-11-02T11:54:33.660Z,78.20
2022-11-02T11:57:22.405Z,78.30
2022-11-02T11:59:52.752Z,78.20
2022-11-02T12:02:25.448Z,78.20
2022-11-02T12:04:58.832Z,78.30
2022-11-02T12:07:56.025Z,78.30
2022-11-02T12:10:32.806Z,78.40
2022-11-02T12:13:13.199Z,78.60
2022-11-02T12:15:53.339Z,78.80
2022-11-02T12:18:34.653Z,79.50
2022-11-02T12:21:14.363Z,79.90
2022-11-02T12:24:04.645Z,80.00
2022-11-02T12:26:42.544Z,80.30
2022-11-02T12:29:29.677Z,80.30
2022-11-02T12:32:08.436Z,80.40
2022-11-02T12:38:09.374Z,80.50
2022-11-02T12:40:46.490Z,80.40
2022-11-02T12:43:31.716Z,80.20
2022-11-02T12:46:04.349Z,80.50
2022-11-02T12:48:40.851Z,80.10
2022-11-02T12:51:15.568Z,79.70
2022-11-02T12:53:48.028Z,79.20
2022-11-02T12:56:21.406Z,78.70
2022-11-02T12:58:49.803Z,78.20
2022-11-02T13:01:25.603Z,77.70
2022-11-02T13:03:59.890Z,77.20
2022-11-02T13:06:32.831Z,77.00
2022-11-02T13:09:05.992Z,76.80
2022-11-02T13:11:38.666Z,76.70
2022-11-02T13:14:15.357Z,76.60
2022-11-02T13:16:49.845Z,76.60
2022-11-02T13:19:24.176Z,76.60
2022-11-02T13:21:56.379Z,76.50
2022-11-02T13:24:31.785Z,76.50
2022-11-02T13:27:14.389Z,76.50
2022-11-02T13:29:46.332Z,76.50
2022-11-02T13:32:23.209Z,76.60
2022-11-02T13:34:53.472Z,76.60
2022-11-02T13:37:28.732Z,76.60
2022-11-02T13:40:00.060Z,76.60
2022-11-02T13:43:03.843Z,76.60
2022-11-02T13:45:41.929Z,76.70
2022-11-02T13:48:26.646Z,76.70
2022-11-02T13:50:58.526Z,76.80
2022-11-02T13:53:36.498Z,76.80
2022-11-02T13:56:09.493Z,76.80
2022-11-02T13:58:41.865Z,76.80
2022-11-02T14:01:12.302Z,76.70
2022-11-02T14:03:49.827Z,76.70
2022-11-02T14:06:19.381Z,76.70
2022-11-02T14:08:53.636Z,76.70
2022-11-02T14:11:46.903Z,76.70
2022-11-02T14:14:23.560Z,76.70
2022-11-02T14:17:00.117Z,76.70
2022-11-02T14:19:33.026Z,76.80
2022-11-02T14:22:12.710Z,76.80
2022-11-02T14:25:19.493Z,76.80
2022-11-02T14:27:48.563Z,76.80
2022-11-02T14:30:45.065Z,76.90
2022-11-02T14:33:35.945Z,76.90
2022-11-02T14:36:10.362Z,76.90
2022-11-02T14:38:47.923Z,76.90
2022-11-02T14:41:49.095Z,76.90
2022-11-02T14:44:38.319Z,76.80
2022-11-02T14:47:09.625Z,76.80
2022-11-02T14:49:40.201Z,76.80
2022-11-02T14:52:24.858Z,76.80
2022-11-02T14:54:59.622Z,76.80
2022-11-02T14:57:30.894Z,76.70
2022-11-02T15:00:03.501Z,76.80
2022-11-02T15:02:38.648Z,76.90
2022-11-02T15:05:22.793Z,76.90
2022-11-02T15:07:53.463Z,76.70
2022-11-02T15:10:43.291Z,76.70
2022-11-02T15:13:39.304Z,76.80
2022-11-02T15:16:24.857Z,76.80
2022-11-02T15:18:53.497Z,76.80
2022-11-02T15:21:28.517Z,76.70
2022-11-02T15:24:13.816Z,76.80
2022-11-02T15:26:53.469Z,76.80
2022-11-02T15:29:36.679Z,76.80
2022-11-02T15:32:12.679Z,76.80
2022-11-02T15:34:43.974Z,76.80
2022-11-02T15:37:17.567Z,76.90
2022-11-02T15:39:49.808Z,76.80
2022-11-02T15:42:28.375Z,76.80
2022-11-02T15:45:34.517Z,77.60
2022-11-02T15:48:19.234Z,76.80
2022-11-02T15:50:54.287Z,76.90
2022-11-02T15:53:51.210Z,77.00
2022-11-02T15:56:42.921Z,76.90
2022-11-02T15:59:43.642Z,76.90
2022-11-02T16:02:26.921Z,76.80
2022-11-02T16:04:57.932Z,76.70
2022-11-02T16:07:33.306Z,76.70
2022-11-02T16:10:23.987Z,76.60
2022-11-02T16:13:14.017Z,76.50
2022-11-02T16:15:42.539Z,76.40
2022-11-02T16:18:24.302Z,76.30
2022-11-02T16:20:55.654Z,75.90
2022-11-02T16:23:26.078Z,75.80
2022-11-02T16:25:55.866Z,75.60
2022-11-02T16:28:25.417Z,75.40
2022-11-02T16:31:14.365Z,75.40
2022-11-02T16:33:45.398Z,75.10
2022-11-02T16:36:17.084Z,75.00
2022-11-02T16:38:49.458Z,74.70
2022-11-02T16:41:18.064Z,74.70
2022-11-02T16:43:49.814Z,74.60
2022-11-02T16:46:18.698Z,74.50
2022-11-02T16:49:15.150Z,74.40
2022-11-02T16:51:53.675Z,74.30
2022-11-02T16:54:40.150Z,74.40
2022-11-02T16:57:15.683Z,74.30
2022-11-02T16:59:51.379Z,74.50
2022-11-02T17:02:20.013Z,74.50
2022-11-02T17:07:26.591Z,74.70
2022-11-02T17:09:57.372Z,74.80
2022-11-02T17:12:32.008Z,74.90
2022-11-02T17:15:01.244Z,75.10
2022-11-02T17:17:36.143Z,75.20
2022-11-02T17:20:22.677Z,75.50
2022-11-02T17:22:55.392Z,75.70
2022-11-02T17:25:25.804Z,75.90
2022-11-02T17:27:55.375Z,76.00
2022-11-02T17:30:42.367Z,76.10
2022-11-02T17:33:14.297Z,76.40
2022-11-02T17:35:46.842Z,76.50
2022-11-02T17:38:16.317Z,76.70
2022-11-02T17:40:44.161Z,76.90
2022-11-02T17:43:10.923Z,77.00
2022-11-02T17:45:39.805Z,77.20
2022-11-02T17:48:10.919Z,77.30
2022-11-02T17:50:40.275Z,77.50
2022-11-02T17:53:13.429Z,77.70
2022-11-02T17:55:42.562Z,77.90
2022-11-02T17:58:13.592Z,78.10
2022-11-02T18:00:41.660Z,78.30
2022-11-02T18:03:15.951Z,78.50
2022-11-02T18:05:48.285Z,78.60
2022-11-02T18:08:18.351Z,78.70
2022-11-02T18:10:48.562Z,78.90
2022-11-02T18:13:18.057Z,79.20
2022-11-02T18:15:46.379Z,79.20
2022-11-02T18:18:14.503Z,79.10
2022-11-02T18:20:42.808Z,79.00
2022-11-02T18:23:16.441Z,78.80
2022-11-02T18:25:44.375Z,78.60
2022-11-02T18:28:13.877Z,78.50
2022-11-02T18:30:43.898Z,78.60
2022-11-02T18:33:14.035Z,79.00
2022-11-02T18:35:42.432Z,79.30
2022-11-02T18:38:10.351Z,79.50
2022-11-02T18:40:38.159Z,79.50
2022-11-02T18:43:06.137Z,79.60
2022-11-02T18:45:35.506Z,79.60
2022-11-02T18:48:03.561Z,79.70
2022-11-02T18:50:31.577Z,79.70
2022-11-02T18:52:59.320Z,79.60
2022-11-02T18:55:27.101Z,79.60
2022-11-02T18:57:54.870Z,79.70
2022-11-02T19:00:22.649Z,79.70
2022-11-02T19:02:51.710Z,79.80
2022-11-02T19:05:37.201Z,79.80
2022-11-02T19:08:23.071Z,79.70
2022-11-02T19:10:50.822Z,79.80
2022-11-02T19:13:18.542Z,79.80
2022-11-02T19:15:46.329Z,79.80
2022-11-02T19:18:15.401Z,79.90
2022-11-02T19:20:43.154Z,79.90
2022-11-02T19:23:11.281Z,80.70
2022-11-02T19:25:39.149Z,79.90
2022-11-02T19:28:07.223Z,79.90
2022-11-02T19:30:37.824Z,79.90
2022-11-02T19:33:06.398Z,79.90
2022-11-02T19:35:35.641Z,79.90
2022-11-02T19:38:03.358Z,80.00
2022-11-02T19:40:31.132Z,80.00
2022-11-02T19:42:58.860Z,79.90
2022-11-02T19:45:26.587Z,80.00
2022-11-02T19:47:54.356Z,80.00
2022-11-02T19:50:22.104Z,79.90
2022-11-02T19:52:51.163Z,79.90
2022-11-02T19:55:22.585Z,79.90
2022-11-02T19:57:50.324Z,79.90
2022-11-02T20:00:18.632Z,79.90
2022-11-02T20:02:49.681Z,80.00
2022-11-02T20:05:17.624Z,79.90
2022-11-02T20:07:45.346Z,79.90
2022-11-02T20:10:14.451Z,79.90
2022-11-02T20:12:42.187Z,79.80
2022-11-02T20:15:12.069Z,79.80
2022-11-02T20:17:58.255Z,79.80
2022-11-02T20:20:27.946Z,79.90
2022-11-02T20:22:55.792Z,79.80
2022-11-02T20:25:25.608Z,79.80
2022-11-02T20:27:53.522Z,79.80
2022-11-02T20:30:22.238Z,79.80
2022-11-02T20:32:50.409Z,79.80
2022-11-02T20:35:22.668Z,79.90
2022-11-02T20:37:50.473Z,79.80
2022-11-02T20:40:18.412Z,79.80
2022-11-02T20:42:49.433Z,79.90
2022-11-02T20:45:17.762Z,79.80
2022-11-02T20:47:45.491Z,79.90
2022-11-02T20:50:16.676Z,79.90
2022-11-02T20:52:46.395Z,79.80
2022-11-02T20:55:14.172Z,79.80
2022-11-02T20:57:41.896Z,79.70
2022-11-02T21:00:13.165Z,79.80
2022-11-02T21:02:40.948Z,79.70
2022-11-02T21:05:09.550Z,79.70
2022-11-02T21:07:37.276Z,79.80
2022-11-02T21:10:05.922Z,79.80
2022-11-02T21:12:51.382Z,79.80
2022-11-02T21:15:20.478Z,79.80
2022-11-02T21:17:48.249Z,79.80
2022-11-02T21:23:05.501Z,79.80
2022-11-02T21:25:34.319Z,79.80
2022-11-02T21:28:02.475Z,79.80
2022-11-02T21:30:31.933Z,79.80
2022-11-02T21:32:59.903Z,79.70
2022-11-02T21:35:27.843Z,79.70
2022-11-02T21:38:01.261Z,79.70
2022-11-02T21:40:31.632Z,79.60
2022-11-02T21:42:59.440Z,79.60
2022-11-02T21:45:27.188Z,79.60
2022-11-02T21:47:56.299Z,79.60
2022-11-02T21:50:24.053Z,79.50
2022-11-02T21:52:51.788Z,79.50
2022-11-02T21:55:19.595Z,79.40
2022-11-02T21:57:47.376Z,79.40
2022-11-02T22:00:16.255Z,79.30
2022-11-02T22:02:43.192Z,79.30
2022-11-02T22:05:32.476Z,79.30
2022-11-02T22:08:26.276Z,79.40
2022-11-02T22:10:57.953Z,79.30
2022-11-02T22:13:34.957Z,79.30
2022-11-02T22:16:17.486Z,79.20
2022-11-02T22:18:46.748Z,79.30
2022-11-02T22:21:17.380Z,79.20
2022-11-02T22:23:46.080Z,79.20
2022-11-02T22:26:16.189Z,79.20
2022-11-02T22:28:45.466Z,79.20
2022-11-02T22:31:15.086Z,79.20
2022-11-02T22:33:43.436Z,79.20
2022-11-02T22:36:14.371Z,79.20
2022-11-02T22:38:51.245Z,79.10
2022-11-02T22:41:21.073Z,79.10
2022-11-02T22:43:49.637Z,79.10
2022-11-02T22:46:17.428Z,79.10
2022-11-02T22:48:45.163Z,79.10
2022-11-02T22:51:13.956Z,79.10
2022-11-02T22:53:42.999Z,79.00
2022-11-02T22:56:12.764Z,79.10
2022-11-02T22:58:42.034Z,79.10
2022-11-02T23:01:13.115Z,79.00
2022-11-02T23:03:41.172Z,79.00
2022-11-02T23:06:09.527Z,79.00
2022-11-02T23:08:39.763Z,79.10
2022-11-02T23:11:22.865Z,79.10
2022-11-02T23:13:54.508Z,79.00
2022-11-02T23:16:24.627Z,78.90
2022-11-02T23:19:18.896Z,78.90
2022-11-02T23:22:13.885Z,78.90
2022-11-02T23:25:01.102Z,78.90
2022-11-02T23:27:30.845Z,78.90
2022-11-02T23:30:16.169Z,78.90
2022-11-02T23:32:44.016Z,78.90
2022-11-02T23:35:29.594Z,78.90
2022-11-02T23:38:05.198Z,78.90
2022-11-02T23:40:33.714Z,78.90
2022-11-02T23:43:03.034Z,78.90
2022-11-02T23:45:31.068Z,78.90
2022-11-02T23:48:00.776Z,78.90
2022-11-02T23:50:49.058Z,78.70
2022-11-02T23:53:36.347Z,78.90
2022-11-02T23:56:22.219Z,78.80
2022-11-02T23:59:05.967Z,78.70
